Eiwamaru — JG5742 — position and weather

sailwx.info

Track history (hours):
 
Tides and Currents Weather Stations Pressure Air Temp Water Temp Dewpoint Dewpoint Depression Visibility Wind Speed Wind Dir Waves Ship Positions

Eiwamaru

Last reported at 2015-Sep-04 09:06 UTC. Time now 2015-Sep-04 12:29 UTC.
Position N 34°08' E 134°58'.

Length 80 m; draft 5.3 m.

Type: Tanker. MMSI: 431101045.

Date/timePositionNaut miles runAvg speedWind from/ knotsBaromVisibWave heightAir tempDewpointWater temp
2015-Sep-04 09:06N 34°08' E 134°58'1014.3
2015-Sep-04 08:24N 34°18' E 134°58'1113.0
2015-Sep-04 07:31N 34°26' E 135°08'1313.1
2015-Sep-04 06:32N 34°33' E 135°22'3 3.4
2015-Sep-04 05:32N 34°33' E 135°26'0 0.0
2015-Sep-04 04:30N 34°33' E 135°26'0 0.0
2015-Sep-04 03:32N 34°33' E 135°26'0 0.0
2015-Sep-04 02:31N 34°33' E 135°26'0 0.0
2015-Sep-04 00:32N 34°33' E 135°26'0 0.0
2015-Sep-03 23:33N 34°33' E 135°26'0 0.0
2015-Sep-03 22:33N 34°33' E 135°26'5 5.2
2015-Sep-03 21:33N 34°32' E 135°19'0 0.4
2015-Sep-03 20:33N 34°31' E 135°19'0 0.0
2015-Sep-03 19:33N 34°31' E 135°19'0 0.0
2015-Sep-03 18:33N 34°31' E 135°19'0 0.0
2015-Sep-03 16:33N 34°32' E 135°19'0 0.0
2015-Sep-03 15:33N 34°32' E 135°19'0 0.0
2015-Sep-03 14:33N 34°32' E 135°19'0 0.1
2015-Sep-03 13:33N 34°32' E 135°19'0 0.0
2015-Sep-03 12:33N 34°32' E 135°19'0 0.1
2015-Sep-03 11:33N 34°31' E 135°19'4 3.7
2015-Sep-03 10:33N 34°29' E 135°16'1412.8
2015-Sep-03 09:29N 34°21' E 135°03'  
Track history (hours):
 
Tides and Currents Weather Stations Pressure Air Temp Water Temp Dewpoint Dewpoint Depression Visibility Wind Speed Wind Dir Waves Ship Positions

Eiwamaru

Last reported at 2015-Sep-04 09:06 UTC. Time now 2015-Sep-04 12:29 UTC.
Position N 34°08' E 134°58'.

Length 80 m; draft 5.3 m.

Type: Tanker. MMSI: 431101045.

Date/timePositionNaut miles runAvg speedWind from/ knotsBaromVisibWave heightAir tempDewpointWater temp
2015-Sep-04 09:06N 34°08' E 134°58'1014.3
2015-Sep-04 08:24N 34°18' E 134°58'1113.0
2015-Sep-04 07:31N 34°26' E 135°08'1313.1
2015-Sep-04 06:32N 34°33' E 135°22'3 3.4
2015-Sep-04 05:32N 34°33' E 135°26'0 0.0
2015-Sep-04 04:30N 34°33' E 135°26'0 0.0
2015-Sep-04 03:32N 34°33' E 135°26'0 0.0
2015-Sep-04 02:31N 34°33' E 135°26'0 0.0
2015-Sep-04 00:32N 34°33' E 135°26'0 0.0
2015-Sep-03 23:33N 34°33' E 135°26'0 0.0
2015-Sep-03 22:33N 34°33' E 135°26'5 5.2
2015-Sep-03 21:33N 34°32' E 135°19'0 0.4
2015-Sep-03 20:33N 34°31' E 135°19'0 0.0
2015-Sep-03 19:33N 34°31' E 135°19'0 0.0
2015-Sep-03 18:33N 34°31' E 135°19'0 0.0
2015-Sep-03 16:33N 34°32' E 135°19'0 0.0
2015-Sep-03 15:33N 34°32' E 135°19'0 0.0
2015-Sep-03 14:33N 34°32' E 135°19'0 0.1
2015-Sep-03 13:33N 34°32' E 135°19'0 0.0
2015-Sep-03 12:33N 34°32' E 135°19'0 0.1
2015-Sep-03 11:33N 34°31' E 135°19'4 3.7
2015-Sep-03 10:33N 34°29' E 135°16'1412.8
2015-Sep-03 09:29N 34°21' E 135°03'  

Dump ship's entire track history